Time;durP1;ratioP1;P1;durP2;ratioP2;P2;SDS_P1;SDS_P2;PMS_P1;PMS_P2;Temp;Humidity;BMP_temperature;BMP_pressure;BME280_temperature;BME280_humidity;BME280_pressure;Samples;Min_cycle;Max_cycle;Signal;HPM_P1;HPM_P2
2023/07/18 00:01:13;;;;;;;11.60;1.88;;;15.10;99.90;;;;;;4974476;28;20216;-67
2023/07/18 00:03:40;;;;;;;8.88;1.45;;;15.00;99.90;;;;;;4974479;28;20168;-66
2023/07/18 00:06:05;;;;;;;13.57;1.80;;;14.90;99.90;;;;;;4972476;28;20707;-65
2023/07/18 00:08:31;;;;;;;11.43;1.50;;;14.90;99.90;;;;;;4974507;28;20250;-65
2023/07/18 00:10:57;;;;;;;10.50;1.40;;;;;;;;;;4974312;28;20176;-65
2023/07/18 00:13:23;;;;;;;7.65;1.58;;;14.90;99.90;;;;;;4974330;28;20182;-65
2023/07/18 00:15:49;;;;;;;11.18;1.60;;;14.90;99.90;;;;;;4973932;28;20234;-65
2023/07/18 00:18:15;;;;;;;10.65;1.40;;;14.90;99.90;;;;;;4974048;28;20172;-60
2023/07/18 00:20:41;;;;;;;6.53;1.45;;;;;;;;;;4973568;28;20531;-59
2023/07/18 00:23:10;;;;;;;9.98;1.30;;;15.10;99.90;;;;;;4974194;28;20207;-58
2023/07/18 00:25:36;;;;;;;11.38;1.42;;;14.80;99.90;;;;;;4973607;28;20230;-59
2023/07/18 00:28:03;;;;;;;11.13;1.70;;;14.70;99.90;;;;;;4973423;28;20581;-59
2023/07/18 00:30:29;;;;;;;11.52;1.90;;;14.90;99.90;;;;;;4973928;28;20195;-59
2023/07/18 00:32:56;;;;;;;8.43;1.90;;;14.90;99.90;;;;;;4974001;28;20175;-59
2023/07/18 00:35:22;;;;;;;12.77;1.60;;;14.80;99.90;;;;;;4973600;28;20175;-58
2023/07/18 00:37:48;;;;;;;10.43;1.45;;;14.90;99.90;;;;;;4973937;28;20240;-59
2023/07/18 00:40:15;;;;;;;10.75;1.45;;;14.70;99.90;;;;;;4973812;28;20239;-59
2023/07/18 00:42:43;;;;;;;10.45;1.58;;;14.80;99.90;;;;;;4973981;28;20179;-59
2023/07/18 00:45:10;;;;;;;9.00;1.90;;;14.40;99.90;;;;;;4973237;28;20742;-59
2023/07/18 00:47:45;;;;;;;8.75;1.02;;;14.70;99.90;;;;;;4973531;28;20651;-60
2023/07/18 00:50:14;;;;;;;7.75;1.50;;;14.70;99.90;;;;;;4973685;28;20163;-59
2023/07/18 00:52:52;;;;;;;9.75;1.45;;;14.90;99.90;;;;;;4972543;28;20172;-59
2023/07/18 00:55:18;;;;;;;9.25;1.30;;;14.60;99.90;;;;;;4973204;28;20695;-58
2023/07/18 00:57:45;;;;;;;10.80;1.40;;;14.70;99.90;;;;;;4973496;28;20179;-59
2023/07/18 01:00:13;;;;;;;13.25;1.60;;;14.80;99.90;;;;;;4973323;28;20211;-59
2023/07/18 01:02:43;;;;;;;11.15;1.27;;;14.80;99.90;;;;;;4973386;28;20226;-58
2023/07/18 01:05:09;;;;;;;12.27;1.70;;;14.80;99.90;;;;;;4971742;28;20176;-59
2023/07/18 01:07:36;;;;;;;8.45;1.27;;;14.50;99.90;;;;;;4973170;28;20196;-59
2023/07/18 01:10:23;;;;;;;7.93;1.00;;;14.40;99.90;;;;;;4973351;28;20176;-59
2023/07/18 01:12:51;;;;;;;7.95;1.85;;;14.60;99.90;;;;;;4972837;28;20635;-59
2023/07/18 01:15:19;;;;;;;10.18;1.20;;;;;;;;;;4972928;28;20180;-59
2023/07/18 01:17:45;;;;;;;11.70;1.65;;;14.60;99.90;;;;;;4973130;28;20175;-61
2023/07/18 01:20:18;;;;;;;7.50;1.38;;;14.60;99.90;;;;;;4971061;28;20298;-61
2023/07/18 01:22:44;;;;;;;12.75;1.98;;;;;;;;;;4972760;28;20203;-60
2023/07/18 01:25:11;;;;;;;9.23;1.38;;;;;;;;;;4972795;28;20168;-61
2023/07/18 01:27:38;;;;;;;7.20;1.20;;;15.70;99.90;;;;;;4972927;28;20184;-61
2023/07/18 01:30:05;;;;;;;9.73;1.65;;;14.50;99.90;;;;;;4972557;28;20182;-61
2023/07/18 01:32:31;;;;;;;11.82;1.90;;;;;;;;;;4972773;28;20663;-61
2023/07/18 01:34:59;;;;;;;10.07;1.40;;;14.40;99.90;;;;;;4972957;28;20184;-61
2023/07/18 01:37:24;;;;;;;7.65;1.73;;;14.60;99.90;;;;;;4972745;28;20239;-60
2023/07/18 01:39:50;;;;;;;5.35;1.27;;;14.50;99.90;;;;;;4972300;28;20592;-61
2023/07/18 01:42:16;;;;;;;10.63;1.60;;;14.60;99.90;;;;;;4972703;28;20259;-61
2023/07/18 01:44:43;;;;;;;12.90;1.50;;;15.00;99.90;;;;;;4972456;28;20215;-60
2023/07/18 01:47:09;;;;;;;10.15;1.30;;;14.40;99.90;;;;;;4972294;28;20224;-60
2023/07/18 01:49:35;;;;;;;8.10;1.92;;;14.40;99.90;;;;;;4972287;28;20186;-61
2023/07/18 01:52:01;;;;;;;17.65;1.90;;;14.30;99.90;;;;;;4972540;28;20628;-61
2023/07/18 01:54:29;;;;;;;10.90;1.30;;;14.50;99.90;;;;;;4972600;28;20232;-61
2023/07/18 01:56:55;;;;;;;9.82;1.45;;;;;;;;;;4970884;28;20192;-61
2023/07/18 01:59:22;;;;;;;9.77;1.80;;;14.20;99.90;;;;;;4972347;28;20180;-61
2023/07/18 02:01:48;;;;;;;13.05;1.90;;;14.30;99.90;;;;;;4971992;28;20578;-62
2023/07/18 02:04:14;;;;;;;12.07;1.95;;;;;;;;;;4972001;28;20175;-62
2023/07/18 02:06:40;;;;;;;9.27;1.67;;;14.50;99.90;;;;;;4971789;28;20180;-62
2023/07/18 02:09:07;;;;;;;5.75;1.60;;;14.20;99.90;;;;;;4971690;28;20179;-61
2023/07/18 02:11:33;;;;;;;11.40;1.77;;;;;;;;;;4972111;28;20194;-61
2023/07/18 02:13:58;;;;;;;13.52;1.73;;;14.30;99.90;;;;;;4971782;28;20164;-62
2023/07/18 02:16:24;;;;;;;7.22;1.58;;;14.30;99.90;;;;;;4971950;28;20678;-62
2023/07/18 02:18:49;;;;;;;10.50;1.52;;;14.30;99.90;;;;;;4972216;28;20187;-62
2023/07/18 02:21:15;;;;;;;7.07;1.50;;;14.30;99.90;;;;;;4971048;28;20618;-61
2023/07/18 02:23:40;;;;;;;5.72;1.40;;;14.20;99.90;;;;;;4978894;28;20190;-61
2023/07/18 02:26:06;;;;;;;10.50;1.50;;;;;;;;;;4991530;28;20178;-61
2023/07/18 02:28:32;;;;;;;6.05;1.30;;;14.10;99.90;;;;;;4991442;28;20250;-61
2023/07/18 02:30:59;;;;;;;14.35;2.05;;;14.20;99.90;;;;;;4981585;28;20171;-60
2023/07/18 02:33:25;;;;;;;9.90;1.63;;;14.10;99.90;;;;;;4972225;28;20187;-60
2023/07/18 02:35:51;;;;;;;8.55;1.92;;;14.10;99.90;;;;;;4971977;28;20662;-65
2023/07/18 02:38:16;;;;;;;8.90;1.63;;;14.10;99.90;;;;;;4971608;28;20239;-62
2023/07/18 02:40:42;;;;;;;14.20;1.55;;;14.20;99.90;;;;;;4971900;28;20215;-61
2023/07/18 02:43:08;;;;;;;12.75;1.90;;;;;;;;;;4971890;28;20214;-60
2023/07/18 02:45:34;;;;;;;10.00;1.60;;;;;;;;;;4971653;28;20215;-61
2023/07/18 02:48:00;;;;;;;8.20;1.85;;;14.10;99.90;;;;;;4971739;28;20199;-60
2023/07/18 02:50:26;;;;;;;14.25;1.77;;;;;;;;;;4971570;28;20176;-60
2023/07/18 02:52:52;;;;;;;3.80;1.20;;;;;;;;;;4971751;28;20215;-60
2023/07/18 02:55:17;;;;;;;5.15;1.23;;;14.00;99.90;;;;;;4971867;28;20230;-60
2023/07/18 02:57:43;;;;;;;9.88;1.55;;;14.00;99.90;;;;;;4971377;28;20651;-59
2023/07/18 03:00:19;;;;;;;4.47;1.13;;;14.10;99.90;;;;;;4971786;28;20204;-60
2023/07/18 03:02:48;;;;;;;6.45;1.67;;;14.00;99.90;;;;;;4971352;28;20184;-61
2023/07/18 03:05:18;;;;;;;7.78;1.63;;;14.00;99.90;;;;;;4970063;28;20180;-60
2023/07/18 03:07:46;;;;;;;13.00;1.38;;;14.00;99.90;;;;;;4971701;28;20184;-60
2023/07/18 03:10:12;;;;;;;10.15;1.75;;;14.00;99.90;;;;;;4971417;28;20180;-59
2023/07/18 03:12:40;;;;;;;7.22;1.30;;;14.00;99.90;;;;;;4971896;28;20336;-60
2023/07/18 03:15:09;;;;;;;3.95;1.25;;;14.10;99.90;;;;;;4971340;28;20180;-60
2023/07/18 03:17:35;;;;;;;10.77;1.33;;;14.00;99.90;;;;;;4975349;28;20251;-66
2023/07/18 03:20:05;;;;;;;7.90;1.30;;;14.00;99.90;;;;;;4975183;28;20194;-62
2023/07/18 03:22:31;;;;;;;7.50;1.55;;;14.10;99.90;;;;;;4975400;28;20255;-61
2023/07/18 03:25:04;;;;;;;5.65;1.58;;;14.10;99.90;;;;;;4974281;28;20706;-61
2023/07/18 03:27:30;;;;;;;11.30;1.50;;;14.10;99.90;;;;;;4975160;28;20174;-65
2023/07/18 03:29:56;;;;;;;7.95;1.30;;;14.20;99.90;;;;;;4975129;28;20258;-61
2023/07/18 03:32:22;;;;;;;6.13;1.20;;;14.20;99.90;;;;;;4974826;28;20180;-62
2023/07/18 03:34:48;;;;;;;9.25;1.30;;;14.20;99.90;;;;;;4975085;28;20164;-62
2023/07/18 03:37:13;;;;;;;5.15;1.35;;;14.20;99.90;;;;;;4974996;28;20184;-62
2023/07/18 03:39:40;;;;;;;6.00;1.40;;;14.20;99.90;;;;;;4974958;28;20172;-61
2023/07/18 03:42:06;;;;;;;7.10;1.27;;;14.20;99.90;;;;;;4974665;28;20247;-61
2023/07/18 03:44:32;;;;;;;11.68;1.50;;;14.20;99.90;;;;;;4974851;28;20176;-61
2023/07/18 03:46:57;;;;;;;7.93;1.50;;;14.20;99.90;;;;;;4974640;28;20253;-61
2023/07/18 03:49:23;;;;;;;7.70;1.58;;;14.20;99.90;;;;;;4974506;28;20211;-61
2023/07/18 03:51:48;;;;;;;11.45;1.35;;;14.20;99.90;;;;;;4974660;28;20172;-60
2023/07/18 03:54:14;;;;;;;8.73;1.50;;;14.20;99.90;;;;;;4974732;28;20172;-62
2023/07/18 03:56:40;;;;;;;6.35;1.42;;;14.30;99.90;;;;;;4974215;28;20200;-61
2023/07/18 03:59:05;;;;;;;8.13;1.48;;;14.10;99.90;;;;;;4974652;28;20180;-60
2023/07/18 04:01:31;;;;;;;9.30;1.65;;;14.30;99.90;;;;;;4970007;28;20223;-60
2023/07/18 04:03:57;;;;;;;8.05;1.45;;;14.40;99.90;;;;;;4969806;28;21797;-60
2023/07/18 04:06:22;;;;;;;6.90;1.20;;;14.30;99.90;;;;;;4968087;28;20206;-61
2023/07/18 04:08:48;;;;;;;8.85;1.50;;;14.30;99.90;;;;;;4969821;28;20188;-61
2023/07/18 04:11:13;;;;;;;7.00;1.38;;;14.30;99.90;;;;;;4968719;28;20176;-60
2023/07/18 04:13:39;;;;;;;7.00;1.30;;;14.40;99.90;;;;;;4969645;28;20671;-61
2023/07/18 04:16:05;;;;;;;7.22;1.33;;;14.40;99.90;;;;;;4969478;28;20674;-61
2023/07/18 04:18:31;;;;;;;8.95;1.77;;;14.40;99.90;;;;;;4969044;28;20271;-61
2023/07/18 04:21:03;;;;;;;4.72;1.25;;;14.40;99.90;;;;;;4969367;28;20220;-61
2023/07/18 04:23:30;;;;;;;13.35;1.83;;;14.40;99.90;;;;;;4966382;28;20592;-61
2023/07/18 04:26:00;;;;;;;14.10;1.40;;;14.40;99.90;;;;;;4968254;28;20184;-61
2023/07/18 04:28:34;;;;;;;9.68;1.73;;;14.40;99.90;;;;;;4968094;28;20725;-61
2023/07/18 04:31:01;;;;;;;11.52;1.58;;;14.40;99.90;;;;;;4968636;28;20206;-61
2023/07/18 04:33:27;;;;;;;14.75;1.90;;;12.90;99.90;;;;;;4967881;28;20192;-63
2023/07/18 04:35:53;;;;;;;11.68;1.88;;;14.40;99.90;;;;;;4968299;28;20573;-61
2023/07/18 04:38:18;;;;;;;10.48;1.65;;;14.50;99.90;;;;;;4968151;28;20191;-62
2023/07/18 04:40:44;;;;;;;8.10;1.60;;;14.50;99.90;;;;;;4968961;28;20255;-62
2023/07/18 04:43:10;;;;;;;9.80;1.55;;;14.50;99.90;;;;;;4968949;28;20175;-62
2023/07/18 04:45:46;;;;;;;12.25;2.38;;;14.50;99.90;;;;;;4973552;28;20224;-63
2023/07/18 04:48:16;;;;;;;6.38;1.30;;;14.50;99.90;;;;;;4973265;28;20647;-62
2023/07/18 04:50:43;;;;;;;10.40;1.95;;;14.40;99.90;;;;;;4973352;28;20187;-62
2023/07/18 04:53:09;;;;;;;8.40;1.83;;;14.40;99.90;;;;;;4973787;28;20184;-62
2023/07/18 04:55:36;;;;;;;6.28;1.40;;;14.50;99.90;;;;;;4972852;28;20262;-61
2023/07/18 04:58:07;;;;;;;4.38;1.20;;;14.50;99.90;;;;;;4973414;28;20180;-61
2023/07/18 05:00:33;;;;;;;10.07;1.67;;;14.40;99.90;;;;;;4972908;28;20234;-61
2023/07/18 05:03:00;;;;;;;7.90;1.83;;;14.50;99.90;;;;;;4973578;28;20172;-62
2023/07/18 05:05:27;;;;;;;13.63;1.98;;;14.60;99.90;;;;;;4972886;28;20184;-63
2023/07/18 05:07:54;;;;;;;6.70;1.45;;;14.50;99.90;;;;;;4973271;28;20175;-61
2023/07/18 05:10:21;;;;;;;6.28;1.35;;;14.40;99.90;;;;;;4973320;28;20190;-62
2023/07/18 05:12:47;;;;;;;5.68;1.48;;;;;;;;;;4973147;28;20172;-62
2023/07/18 05:15:13;;;;;;;8.77;1.50;;;14.50;99.90;;;;;;4972858;28;20612;-61
2023/07/18 05:17:39;;;;;;;10.70;1.60;;;;;;;;;;4973117;28;20172;-62
2023/07/18 05:20:05;;;;;;;8.88;1.48;;;14.60;99.90;;;;;;4972887;28;20184;-60
2023/07/18 05:22:31;;;;;;;12.93;1.65;;;14.60;99.90;;;;;;4973063;28;20191;-65
2023/07/18 05:24:56;;;;;;;6.43;1.48;;;14.60;99.90;;;;;;4972826;28;20214;-62
2023/07/18 05:27:23;;;;;;;8.25;1.42;;;;;;;;;;4973029;28;20184;-62
2023/07/18 05:29:49;;;;;;;8.70;1.55;;;14.50;99.90;;;;;;4972929;28;20168;-61
2023/07/18 05:32:15;;;;;;;7.70;1.77;;;14.60;99.90;;;;;;4972580;28;20259;-61
2023/07/18 05:34:40;;;;;;;3.60;1.00;;;14.70;99.90;;;;;;4973123;28;20215;-61
2023/07/18 05:37:06;;;;;;;10.05;1.55;;;14.60;99.90;;;;;;4972743;28;20184;-61
2023/07/18 05:39:31;;;;;;;14.70;2.15;;;14.80;99.90;;;;;;4971629;28;20182;-61
2023/07/18 05:41:58;;;;;;;12.20;2.00;;;;;;;;;;4972585;28;20207;-62
2023/07/18 05:44:23;;;;;;;7.03;1.70;;;14.90;99.90;;;;;;4972199;28;20255;-62
2023/07/18 05:46:49;;;;;;;8.55;1.70;;;15.40;99.90;;;;;;4972156;28;20706;-62
2023/07/18 05:49:15;;;;;;;7.75;1.45;;;;;;;;;;4972640;28;20244;-62
2023/07/18 05:51:41;;;;;;;7.35;1.60;;;15.10;99.90;;;;;;4972506;28;20203;-62
2023/07/18 05:54:06;;;;;;;8.02;1.20;;;15.20;99.90;;;;;;4972631;28;20270;-61
2023/07/18 05:56:33;;;;;;;13.57;1.50;;;15.30;99.90;;;;;;4972176;28;20242;-60
2023/07/18 05:59:00;;;;;;;10.05;1.80;;;15.30;99.90;;;;;;4972293;28;20661;-60
2023/07/18 06:01:26;;;;;;;13.82;1.85;;;15.30;99.90;;;;;;4970980;28;20219;-61
2023/07/18 06:03:51;;;;;;;7.57;1.83;;;15.30;99.90;;;;;;4972485;28;20274;-61
2023/07/18 06:06:19;;;;;;;7.03;1.80;;;15.40;99.90;;;;;;4971845;28;20596;-60
2023/07/18 06:08:45;;;;;;;9.93;1.80;;;15.40;99.90;;;;;;4971518;28;20258;-60
2023/07/18 06:11:11;;;;;;;14.85;1.88;;;15.40;99.90;;;;;;4972210;28;20214;-60
2023/07/18 06:13:36;;;;;;;11.98;1.50;;;15.40;99.90;;;;;;4971866;28;20211;-61
2023/07/18 06:16:02;;;;;;;11.82;1.33;;;15.50;99.90;;;;;;4972141;28;20246;-61
2023/07/18 06:18:28;;;;;;;8.20;1.65;;;15.50;99.90;;;;;;4972097;28;20179;-60
2023/07/18 06:20:54;;;;;;;6.60;1.30;;;15.60;99.90;;;;;;4972072;28;20208;-60
2023/07/18 06:23:19;;;;;;;5.82;1.58;;;15.70;99.90;;;;;;4972009;28;20655;-60
2023/07/18 06:25:46;;;;;;;9.80;1.80;;;15.70;99.90;;;;;;4972058;28;20207;-60
2023/07/18 06:28:11;;;;;;;7.00;1.60;;;15.80;99.90;;;;;;4971931;28;20176;-60
2023/07/18 06:30:37;;;;;;;11.40;1.75;;;15.80;99.90;;;;;;4971581;28;20678;-61
2023/07/18 06:33:02;;;;;;;11.55;2.13;;;15.80;99.90;;;;;;4971933;28;20180;-61
2023/07/18 06:35:29;;;;;;;9.40;1.77;;;15.80;99.90;;;;;;4971730;28;21018;-61
2023/07/18 06:37:55;;;;;;;9.88;1.80;;;15.90;99.90;;;;;;4971835;28;20167;-62
2023/07/18 06:40:20;;;;;;;13.63;2.25;;;15.90;99.90;;;;;;4971993;28;20262;-71
2023/07/18 06:42:46;;;;;;;8.77;1.88;;;16.00;99.90;;;;;;4970509;28;20206;-67
2023/07/18 06:45:12;;;;;;;9.15;1.70;;;16.10;99.90;;;;;;4973032;28;20183;-67
2023/07/18 06:47:38;;;;;;;5.90;1.40;;;16.00;99.90;;;;;;4971941;28;20172;-67
2023/07/18 06:50:04;;;;;;;11.43;1.70;;;16.00;99.90;;;;;;4973716;28;20168;-67
2023/07/18 06:52:29;;;;;;;10.57;2.03;;;16.00;99.90;;;;;;4974360;28;20175;-66
2023/07/18 06:54:55;;;;;;;5.82;1.35;;;16.00;99.90;;;;;;4975814;28;20182;-66
2023/07/18 06:57:21;;;;;;;5.63;1.25;;;16.00;99.90;;;;;;4975669;28;20160;-66
2023/07/18 06:59:46;;;;;;;7.78;1.50;;;16.00;99.90;;;;;;4968256;28;20271;-66
2023/07/18 07:02:13;;;;;;;12.38;1.60;;;15.90;99.90;;;;;;4969528;28;20215;-66
2023/07/18 07:04:39;;;;;;;9.07;1.20;;;16.20;99.90;;;;;;4975535;28;20282;-66
2023/07/18 07:07:08;;;;;;;16.40;1.85;;;16.30;99.90;;;;;;4975448;28;20175;-67
2023/07/18 07:09:34;;;;;;;12.93;1.90;;;16.40;99.90;;;;;;4975384;28;20655;-67
2023/07/18 07:12:01;;;;;;;9.48;1.38;;;16.30;99.90;;;;;;4975274;28;20250;-68
2023/07/18 07:14:26;;;;;;;10.05;1.50;;;16.30;99.90;;;;;;4975329;28;20176;-67
2023/07/18 07:16:53;;;;;;;9.25;1.67;;;16.30;99.90;;;;;;4973024;28;20172;-66
2023/07/18 07:19:18;;;;;;;13.40;1.77;;;16.00;99.90;;;;;;4956292;28;20191;-65
2023/07/18 07:21:45;;;;;;;7.95;1.45;;;16.60;99.90;;;;;;4955795;28;20301;-65
2023/07/18 07:24:11;;;;;;;10.43;1.60;;;16.70;99.90;;;;;;4955813;28;20205;-65
2023/07/18 07:26:37;;;;;;;15.85;1.60;;;16.70;99.90;;;;;;4955800;28;20280;-66
2023/07/18 07:29:04;;;;;;;12.57;1.67;;;16.90;99.90;;;;;;4955478;28;20256;-66
2023/07/18 07:31:31;;;;;;;8.68;1.50;;;16.90;99.90;;;;;;4955734;28;20734;-65
2023/07/18 07:33:56;;;;;;;9.38;1.40;;;16.80;99.90;;;;;;4955740;28;20219;-68
2023/07/18 07:36:22;;;;;;;11.98;2.60;;;16.80;99.90;;;;;;4971213;28;20184;-67
2023/07/18 07:38:48;;;;;;;10.50;1.52;;;;;;;;;;4974578;28;20269;-66
2023/07/18 07:41:14;;;;;;;11.80;1.77;;;17.00;99.90;;;;;;4972990;28;20317;-68
2023/07/18 07:43:40;;;;;;;6.95;1.25;;;;;;;;;;4974853;28;20647;-68
2023/07/18 07:46:06;;;;;;;10.05;1.67;;;17.10;99.90;;;;;;4975018;28;20695;-67
2023/07/18 07:48:31;;;;;;;9.35;1.60;;;17.60;99.90;;;;;;4968463;28;20191;-64
2023/07/18 07:50:59;;;;;;;7.10;1.52;;;17.30;99.90;;;;;;4960739;28;20274;-65
2023/07/18 07:53:26;;;;;;;11.40;1.85;;;17.50;99.90;;;;;;4971318;28;20508;-62
2023/07/18 07:55:51;;;;;;;12.48;1.73;;;17.60;99.90;;;;;;4974359;28;20204;-61
2023/07/18 07:58:17;;;;;;;5.70;1.30;;;17.70;99.90;;;;;;4974588;28;20246;-60
2023/07/18 08:00:43;;;;;;;11.27;1.80;;;17.80;99.90;;;;;;4974326;28;20866;-59
2023/07/18 08:03:09;;;;;;;12.57;1.70;;;17.80;99.90;;;;;;4974006;28;20598;-59
2023/07/18 08:05:34;;;;;;;7.47;1.30;;;17.70;99.90;;;;;;4974420;28;20194;-60
2023/07/18 08:08:00;;;;;;;8.38;1.48;;;17.60;99.90;;;;;;4974241;28;20251;-65
2023/07/18 08:10:26;;;;;;;5.25;1.33;;;17.90;99.90;;;;;;4965824;28;20275;-66
2023/07/18 08:12:51;;;;;;;7.70;1.30;;;18.10;99.90;;;;;;4954942;28;20224;-65
2023/07/18 08:15:17;;;;;;;11.82;1.10;;;18.00;99.90;;;;;;4954861;28;20225;-64
2023/07/18 08:17:42;;;;;;;8.20;1.70;;;17.90;99.90;;;;;;4954735;28;20169;-60
2023/07/18 08:20:08;;;;;;;15.77;2.35;;;18.00;99.90;;;;;;4954674;28;20181;-59
2023/07/18 08:22:34;;;;;;;7.68;1.42;;;18.60;99.90;;;;;;4954630;28;20191;-60
2023/07/18 08:25:01;;;;;;;9.13;1.30;;;18.50;99.90;;;;;;4954495;28;20203;-59
2023/07/18 08:27:26;;;;;;;5.25;1.30;;;18.70;99.90;;;;;;4954831;28;20263;-60
2023/07/18 08:29:52;;;;;;;12.35;1.80;;;18.50;99.90;;;;;;4957119;28;20255;-60
2023/07/18 08:32:17;;;;;;;5.57;1.35;;;18.60;99.90;;;;;;4973444;28;20705;-60
2023/07/18 08:34:43;;;;;;;7.53;1.58;;;18.70;99.90;;;;;;4973440;28;20183;-60
2023/07/18 08:37:09;;;;;;;4.95;1.42;;;18.60;99.90;;;;;;4973121;28;20617;-60
2023/07/18 08:39:36;;;;;;;7.18;1.05;;;;;;;;;;4973864;28;20176;-60
2023/07/18 08:42:05;;;;;;;8.90;1.60;;;18.60;99.90;;;;;;4972971;28;20302;-61
2023/07/18 08:44:32;;;;;;;7.95;1.00;;;18.80;99.90;;;;;;4973336;28;20247;-60
2023/07/18 08:47:00;;;;;;;10.13;1.15;;;18.90;99.90;;;;;;4973210;28;20219;-61
2023/07/18 08:49:29;;;;;;;7.05;1.20;;;19.00;99.90;;;;;;4973575;28;20188;-61
2023/07/18 08:51:55;;;;;;;7.63;1.30;;;18.90;99.90;;;;;;4973498;28;20714;-61
2023/07/18 08:54:21;;;;;;;8.18;1.02;;;18.90;1.00;;;;;;4972383;28;20208;-60
2023/07/18 08:56:48;;;;;;;7.15;1.30;;;18.70;1.00;;;;;;4973107;28;20647;-60
2023/07/18 08:59:14;;;;;;;7.80;1.48;;;18.80;1.00;;;;;;4973391;28;20242;-60
2023/07/18 09:01:50;;;;;;;6.88;1.15;;;19.00;1.00;;;;;;4972155;28;20219;-60
2023/07/18 09:04:16;;;;;;;3.92;0.88;;;19.00;99.90;;;;;;4972506;28;20171;-60
2023/07/18 09:06:49;;;;;;;7.85;1.10;;;19.00;1.00;;;;;;4972748;28;20772;-60
2023/07/18 09:09:21;;;;;;;7.13;1.20;;;19.30;1.00;;;;;;4973198;28;20219;-61
2023/07/18 09:11:55;;;;;;;7.60;1.52;;;19.30;1.00;;;;;;4973133;28;20705;-60
2023/07/18 09:14:28;;;;;;;4.03;1.00;;;19.50;1.00;;;;;;4971950;28;20171;-61
2023/07/18 09:16:59;;;;;;;3.88;0.95;;;19.30;1.00;;;;;;4972923;28;20236;-60
2023/07/18 09:19:41;;;;;;;4.05;0.88;;;19.30;1.00;;;;;;4972613;28;20180;-60
2023/07/18 09:22:11;;;;;;;5.95;1.15;;;19.50;1.00;;;;;;4971620;28;20594;-61
2023/07/18 09:24:38;;;;;;;7.35;1.00;;;19.60;99.90;;;;;;4971467;28;20172;-59
2023/07/18 09:27:05;;;;;;;6.47;0.88;;;19.60;99.90;;;;;;4971285;28;20722;-59
2023/07/18 09:29:31;;;;;;;3.75;0.95;;;19.50;99.90;;;;;;4971319;28;20171;-60
2023/07/18 09:31:56;;;;;;;7.15;0.93;;;19.60;99.90;;;;;;4969993;28;20179;-59
2023/07/18 09:34:25;;;;;;;3.05;0.77;;;19.70;1.00;;;;;;4971456;28;20176;-60
2023/07/18 09:36:59;;;;;;;4.07;1.10;;;19.80;1.00;;;;;;4973004;28;20231;-59
2023/07/18 09:39:27;;;;;;;4.75;0.75;;;20.00;1.00;;;;;;4972794;28;20176;-59
2023/07/18 09:41:54;;;;;;;6.07;1.00;;;20.10;1.00;;;;;;4972433;28;20215;-59
2023/07/18 09:44:22;;;;;;;3.17;1.02;;;20.10;1.00;;;;;;4972762;28;20182;-59
2023/07/18 09:46:50;;;;;;;4.97;1.33;;;20.10;1.00;;;;;;4971052;28;20352;-60
2023/07/18 09:49:17;;;;;;;2.53;0.80;;;20.20;1.00;;;;;;4972502;28;20235;-60
2023/07/18 09:51:52;;;;;;;6.90;1.25;;;20.20;1.00;;;;;;4972509;28;20175;-60
2023/07/18 09:54:20;;;;;;;5.22;1.27;;;20.50;39.40;;;;;;4964190;28;20200;-60
2023/07/18 09:56:47;;;;;;;6.00;1.02;;;20.60;1.00;;;;;;4957446;28;20267;-60
2023/07/18 09:59:15;;;;;;;6.88;1.30;;;20.90;1.00;;;;;;4971783;28;20203;-60
2023/07/18 10:01:42;;;;;;;6.18;1.30;;;21.20;1.00;;;;;;4972373;28;20216;-59
2023/07/18 10:04:07;;;;;;;5.20;1.00;;;21.20;99.90;;;;;;4972118;28;20607;-61
2023/07/18 10:06:34;;;;;;;3.47;0.90;;;21.40;1.00;;;;;;4970660;28;20266;-60
2023/07/18 10:09:01;;;;;;;4.75;1.42;;;20.80;99.90;;;;;;4970547;28;20507;-60
2023/07/18 10:11:27;;;;;;;8.32;1.55;;;20.70;99.90;;;;;;4971703;28;20188;-60
2023/07/18 10:14:05;;;;;;;2.95;0.90;;;20.80;99.90;;;;;;4972130;28;20160;-60
2023/07/18 10:16:33;;;;;;;4.70;1.15;;;20.60;99.90;;;;;;4971973;28;20199;-60
2023/07/18 10:18:59;;;;;;;14.10;1.23;;;20.40;1.00;;;;;;4971647;28;20176;-59
2023/07/18 10:21:33;;;;;;;5.30;0.85;;;21.00;99.90;;;;;;4970073;28;20642;-60
2023/07/18 10:24:21;;;;;;;4.13;1.00;;;20.40;1.00;;;;;;4969730;28;20172;-59
2023/07/18 10:27:07;;;;;;;4.07;1.20;;;20.10;1.00;;;;;;4970431;28;20254;-60
2023/07/18 10:29:38;;;;;;;9.80;1.50;;;20.10;99.90;;;;;;4970328;28;20190;-60
2023/07/18 10:32:05;;;;;;;5.32;1.17;;;19.70;99.90;;;;;;4971170;28;20172;-60
2023/07/18 10:34:39;;;;;;;6.38;1.50;;;19.90;99.90;;;;;;4971133;28;20187;-60
2023/07/18 10:37:07;;;;;;;7.40;1.40;;;19.80;99.90;;;;;;4971476;28;20182;-60
2023/07/18 10:39:48;;;;;;;5.25;1.10;;;19.80;99.90;;;;;;4971205;28;20196;-60
2023/07/18 10:42:28;;;;;;;4.40;1.20;;;19.60;1.00;;;;;;4971745;28;20254;-59
2023/07/18 10:44:59;;;;;;;5.60;1.25;;;19.60;95.00;;;;;;4971708;28;20171;-59
2023/07/18 10:47:26;;;;;;;4.50;1.27;;;19.60;99.90;;;;;;4970985;28;20555;-61
2023/07/18 10:49:52;;;;;;;7.45;1.40;;;19.60;1.00;;;;;;4971274;28;20276;-60
2023/07/18 10:52:20;;;;;;;7.30;1.33;;;19.80;11.10;;;;;;4971460;28;20624;-60
2023/07/18 10:54:48;;;;;;;6.65;1.40;;;20.00;1.00;;;;;;4971290;28;20658;-59
2023/07/18 10:57:15;;;;;;;7.65;1.05;;;20.00;99.90;;;;;;4971207;28;20180;-61
2023/07/18 10:59:44;;;;;;;4.68;1.40;;;20.10;90.90;;;;;;4970357;28;20180;-60
2023/07/18 11:02:10;;;;;;;5.88;1.40;;;20.30;1.00;;;;;;4971310;28;20207;-60
2023/07/18 11:04:36;;;;;;;5.32;1.30;;;20.60;1.00;;;;;;4971772;28;20186;-60
2023/07/18 11:07:02;;;;;;;5.75;1.08;;;20.70;1.00;;;;;;4970693;28;20183;-60
2023/07/18 11:09:28;;;;;;;4.75;1.10;;;20.80;1.00;;;;;;4971230;28;20196;-60
2023/07/18 11:11:54;;;;;;;4.90;0.95;;;20.90;1.00;;;;;;4970592;28;20199;-60
2023/07/18 11:14:20;;;;;;;6.22;0.98;;;20.80;1.00;;;;;;4970302;28;20263;-61
2023/07/18 11:16:47;;;;;;;7.32;1.65;;;20.70;1.00;;;;;;4951245;28;20674;-59
2023/07/18 11:19:13;;;;;;;5.72;1.00;;;20.60;1.00;;;;;;4952256;28;20175;-60
2023/07/18 11:21:39;;;;;;;3.50;0.98;;;20.40;1.00;;;;;;4952223;28;20695;-60
2023/07/18 11:24:05;;;;;;;8.02;1.00;;;20.20;99.90;;;;;;4960056;28;20183;-60
2023/07/18 11:26:31;;;;;;;6.10;1.23;;;20.00;1.00;;;;;;4971180;28;20210;-60
2023/07/18 11:28:57;;;;;;;5.22;0.80;;;20.00;1.00;;;;;;4971411;28;20557;-60
2023/07/18 11:31:27;;;;;;;5.25;1.27;;;20.10;1.00;;;;;;4971505;28;20206;-59
2023/07/18 11:33:55;;;;;;;5.55;1.23;;;20.20;1.00;;;;;;4971355;28;20300;-59
2023/07/18 11:36:22;;;;;;;4.20;1.17;;;20.00;1.00;;;;;;4971166;28;20226;-61
2023/07/18 11:38:50;;;;;;;6.03;0.95;;;19.80;1.00;;;;;;4975170;28;20175;-60
2023/07/18 11:41:36;;;;;;;4.78;1.02;;;19.80;1.00;;;;;;4974787;28;20199;-60
2023/07/18 11:44:02;;;;;;;6.40;1.13;;;19.80;1.00;;;;;;4974934;28;20175;-60
2023/07/18 11:46:35;;;;;;;6.47;1.15;;;19.80;99.90;;;;;;4974281;28;20295;-60
2023/07/18 11:49:01;;;;;;;9.27;1.50;;;20.00;80.70;;;;;;4974721;28;20179;-61
2023/07/18 11:51:27;;;;;;;6.80;1.23;;;20.20;1.00;;;;;;4974675;28;20267;-61
2023/07/18 11:53:54;;;;;;;7.32;1.20;;;20.40;1.00;;;;;;4974434;28;20518;-61
2023/07/18 11:56:20;;;;;;;6.47;1.88;;;20.70;99.90;;;;;;4974309;28;20199;-60
2023/07/18 11:58:45;;;;;;;5.35;1.23;;;20.90;1.00;;;;;;4974642;28;20304;-60
2023/07/18 12:01:11;;;;;;;4.43;0.95;;;20.70;99.90;;;;;;4973790;28;20314;-61
2023/07/18 12:03:37;;;;;;;4.78;1.02;;;20.30;1.00;;;;;;4974477;28;20646;-61
2023/07/18 12:06:02;;;;;;;4.15;1.20;;;20.40;99.90;;;;;;4973835;28;20191;-60
2023/07/18 12:08:28;;;;;;;7.35;1.67;;;20.50;99.90;;;;;;4973156;28;20635;-60
2023/07/18 12:10:53;;;;;;;3.65;1.40;;;20.90;99.90;;;;;;4955852;28;20714;-60
2023/07/18 12:13:19;;;;;;;2.90;0.90;;;21.30;99.90;;;;;;4966268;28;20194;-60
2023/07/18 12:15:45;;;;;;;4.07;1.20;;;21.40;1.00;;;;;;4972808;28;20220;-60
2023/07/18 12:18:11;;;;;;;5.03;1.15;;;21.20;1.00;;;;;;4974224;28;20183;-61
2023/07/18 12:20:37;;;;;;;3.63;1.17;;;21.20;1.00;;;;;;4974200;28;20210;-61
2023/07/18 12:23:03;;;;;;;5.72;1.10;;;21.30;1.00;;;;;;4973798;28;20259;-60
2023/07/18 12:25:31;;;;;;;4.70;1.10;;;21.40;1.00;;;;;;4973706;28;20638;-60
2023/07/18 12:27:58;;;;;;;6.18;1.27;;;21.30;1.00;;;;;;4973572;28;20187;-61
2023/07/18 12:30:24;;;;;;;2.30;0.80;;;21.30;1.00;;;;;;4973621;28;20175;-61
2023/07/18 12:32:49;;;;;;;9.60;1.23;;;21.60;1.00;;;;;;4969959;28;20347;-60
2023/07/18 12:35:15;;;;;;;7.40;1.50;;;21.80;1.00;;;;;;4967944;28;20221;-61
2023/07/18 12:37:41;;;;;;;8.05;1.50;;;21.70;1.00;;;;;;4972653;28;20755;-62
2023/07/18 12:40:07;;;;;;;11.93;2.67;;;21.50;1.00;;;;;;4972914;28;20183;-61
2023/07/18 12:42:33;;;;;;;10.25;1.90;;;21.60;1.00;;;;;;4973103;28;20214;-60
2023/07/18 12:44:58;;;;;;;4.00;1.17;;;21.40;1.00;;;;;;4973704;28;20172;-59
2023/07/18 12:47:24;;;;;;;6.82;1.10;;;21.80;1.00;;;;;;4971760;28;20227;-61
2023/07/18 12:49:50;;;;;;;7.25;1.30;;;21.60;1.00;;;;;;4973010;28;20179;-60
2023/07/18 12:52:16;;;;;;;3.72;1.00;;;22.20;99.90;;;;;;4972733;28;20651;-60